sensor_id;sensor_type;location;lat;lon;timestamp;pressure;altitude;pressure_sealevel;temperature;humidity
56334;BME280;42240;53.626;55.886;2022-10-16T00:01:25;77268.72;;;-145.10;100.00
56334;BME280;42240;53.626;55.886;2022-10-16T00:02:59;77270.69;;;-145.10;100.00
56334;BME280;42240;53.626;55.886;2022-10-16T00:04:32;77264.75;;;-145.10;100.00
56334;BME280;42240;53.626;55.886;2022-10-16T00:06:06;77270.69;;;-145.10;100.00
56334;BME280;42240;53.626;55.886;2022-10-16T00:07:40;77276.63;;;-145.10;100.00
56334;BME280;42240;53.626;55.886;2022-10-16T00:09:14;77322.13;;;-145.10;100.00
56334;BME280;42240;53.626;55.886;2022-10-16T00:10:47;77284.53;;;-145.10;100.00
56334;BME280;42240;53.626;55.886;2022-10-16T00:12:21;77272.69;;;-145.10;100.00
56334;BME280;42240;53.626;55.886;2022-10-16T00:13:59;77272.69;;;-145.10;100.00
56334;BME280;42240;53.626;55.886;2022-10-16T00:15:35;77272.69;;;-145.10;100.00
56334;BME280;42240;53.626;55.886;2022-10-16T00:17:12;77276.63;;;-145.10;100.00
56334;BME280;42240;53.626;55.886;2022-10-16T00:18:45;77276.63;;;-145.10;100.00
56334;BME280;42240;53.626;55.886;2022-10-16T00:20:19;77278.59;;;-145.10;100.00
56334;BME280;42240;53.626;55.886;2022-10-16T00:22:12;77296.41;;;-145.10;100.00
56334;BME280;42240;53.626;55.886;2022-10-16T00:23:57;77276.63;;;-145.10;100.00
56334;BME280;42240;53.626;55.886;2022-10-16T00:25:32;77282.56;;;-145.10;100.00
56334;BME280;42240;53.626;55.886;2022-10-16T00:27:05;77282.56;;;-145.10;100.00
56334;BME280;42240;53.626;55.886;2022-10-16T00:28:39;77296.41;;;-145.10;100.00
56334;BME280;42240;53.626;55.886;2022-10-16T00:30:12;77284.53;;;-145.10;100.00
56334;BME280;42240;53.626;55.886;2022-10-16T00:31:46;77284.53;;;-145.10;100.00
56334;BME280;42240;53.626;55.886;2022-10-16T00:33:20;77282.56;;;-145.10;100.00
56334;BME280;42240;53.626;55.886;2022-10-16T00:34:53;77278.59;;;-145.10;100.00
56334;BME280;42240;53.626;55.886;2022-10-16T00:36:27;77282.56;;;-145.10;100.00
56334;BME280;42240;53.626;55.886;2022-10-16T00:38:03;77288.50;;;-145.10;100.00
56334;BME280;42240;53.626;55.886;2022-10-16T00:39:37;77284.53;;;-145.10;100.00
56334;BME280;42240;53.626;55.886;2022-10-16T00:41:15;77288.50;;;-145.10;100.00
56334;BME280;42240;53.626;55.886;2022-10-16T00:42:49;77294.44;;;-145.10;100.00
56334;BME280;42240;53.626;55.886;2022-10-16T00:45:01;77286.53;;;-145.10;100.00
56334;BME280;42240;53.626;55.886;2022-10-16T00:46:38;77288.50;;;-145.10;100.00
56334;BME280;42240;53.626;55.886;2022-10-16T00:48:13;77290.47;;;-145.10;100.00
56334;BME280;42240;53.626;55.886;2022-10-16T00:49:50;77292.44;;;-145.10;100.00
56334;BME280;42240;53.626;55.886;2022-10-16T00:51:35;77300.38;;;-145.10;100.00
56334;BME280;42240;53.626;55.886;2022-10-16T00:53:10;77288.50;;;-145.10;100.00
56334;BME280;42240;53.626;55.886;2022-10-16T00:54:46;77300.38;;;-145.10;100.00
56334;BME280;42240;53.626;55.886;2022-10-16T00:56:20;77296.41;;;-145.10;100.00
56334;BME280;42240;53.626;55.886;2022-10-16T00:57:54;77300.38;;;-145.10;100.00
56334;BME280;42240;53.626;55.886;2022-10-16T00:59:31;77306.28;;;-145.10;100.00
56334;BME280;42240;53.626;55.886;2022-10-16T01:01:06;77300.38;;;-145.10;100.00
56334;BME280;42240;53.626;55.886;2022-10-16T01:02:39;77308.28;;;-145.10;100.00
56334;BME280;42240;53.626;55.886;2022-10-16T01:04:13;77312.22;;;-145.10;100.00
56334;BME280;42240;53.626;55.886;2022-10-16T01:06:11;77298.38;;;-145.10;100.00
56334;BME280;42240;53.626;55.886;2022-10-16T01:08:13;77312.22;;;-145.10;100.00
56334;BME280;42240;53.626;55.886;2022-10-16T01:10:07;77316.19;;;-145.10;100.00
56334;BME280;42240;53.626;55.886;2022-10-16T01:13:24;77322.13;;;-145.10;100.00
56334;BME280;42240;53.626;55.886;2022-10-16T01:16:43;77312.22;;;-145.10;100.00
56334;BME280;42240;53.626;55.886;2022-10-16T01:21:47;77312.22;;;-145.10;100.00
56334;BME280;42240;53.626;55.886;2022-10-16T01:23:25;77304.31;;;-145.10;100.00
56334;BME280;42240;53.626;55.886;2022-10-16T01:25:05;77306.28;;;-145.10;100.00
56334;BME280;42240;53.626;55.886;2022-10-16T01:30:27;77308.28;;;-145.10;100.00
56334;BME280;42240;53.626;55.886;2022-10-16T01:32:23;77308.28;;;-145.10;100.00
56334;BME280;42240;53.626;55.886;2022-10-16T01:34:20;77314.22;;;-145.10;100.00
56334;BME280;42240;53.626;55.886;2022-10-16T01:36:00;77316.19;;;-145.10;100.00
56334;BME280;42240;53.626;55.886;2022-10-16T01:39:39;77318.16;;;-145.10;100.00
56334;BME280;42240;53.626;55.886;2022-10-16T01:43:07;77310.25;;;-145.10;100.00
56334;BME280;42240;53.626;55.886;2022-10-16T01:44:43;77316.19;;;-145.10;100.00
56334;BME280;42240;53.626;55.886;2022-10-16T01:46:20;77312.22;;;-145.10;100.00
56334;BME280;42240;53.626;55.886;2022-10-16T01:47:54;77312.22;;;-145.10;100.00
56334;BME280;42240;53.626;55.886;2022-10-16T01:49:34;77314.22;;;-145.10;100.00
56334;BME280;42240;53.626;55.886;2022-10-16T01:51:12;77316.19;;;-145.10;100.00
56334;BME280;42240;53.626;55.886;2022-10-16T01:52:50;77312.22;;;-145.10;100.00
56334;BME280;42240;53.626;55.886;2022-10-16T01:54:30;77312.22;;;-145.10;100.00
56334;BME280;42240;53.626;55.886;2022-10-16T01:56:08;77318.16;;;-145.10;100.00
56334;BME280;42240;53.626;55.886;2022-10-16T01:57:46;77312.22;;;-145.10;100.00
56334;BME280;42240;53.626;55.886;2022-10-16T01:59:21;77308.28;;;-145.10;100.00
56334;BME280;42240;53.626;55.886;2022-10-16T02:01:02;77312.22;;;-145.10;100.00
56334;BME280;42240;53.626;55.886;2022-10-16T02:02:36;77310.25;;;-145.10;100.00
56334;BME280;42240;53.626;55.886;2022-10-16T02:04:27;77310.25;;;-145.10;100.00
56334;BME280;42240;53.626;55.886;2022-10-16T02:06:06;77308.28;;;-145.10;100.00
56334;BME280;42240;53.626;55.886;2022-10-16T02:07:42;77337.94;;;-145.10;100.00
56334;BME280;42240;53.626;55.886;2022-10-16T02:09:16;77312.22;;;-145.10;100.00
56334;BME280;42240;53.626;55.886;2022-10-16T02:10:50;77308.28;;;-145.10;100.00
56334;BME280;42240;53.626;55.886;2022-10-16T02:12:27;77304.31;;;-145.10;100.00
56334;BME280;42240;53.626;55.886;2022-10-16T02:14:04;77300.38;;;-145.10;100.00
56334;BME280;42240;53.626;55.886;2022-10-16T02:15:41;77302.34;;;-145.10;100.00
56334;BME280;42240;53.626;55.886;2022-10-16T02:17:16;77300.38;;;-145.10;100.00
56334;BME280;42240;53.626;55.886;2022-10-16T02:18:50;77304.31;;;-145.10;100.00
56334;BME280;42240;53.626;55.886;2022-10-16T02:20:27;77308.28;;;-145.10;100.00
56334;BME280;42240;53.626;55.886;2022-10-16T02:22:04;77302.34;;;-145.10;100.00
56334;BME280;42240;53.626;55.886;2022-10-16T02:25:36;77312.22;;;-145.10;100.00
56334;BME280;42240;53.626;55.886;2022-10-16T02:29:28;77314.22;;;-145.10;100.00
56334;BME280;42240;53.626;55.886;2022-10-16T02:31:04;77308.28;;;-145.10;100.00
56334;BME280;42240;53.626;55.886;2022-10-16T02:32:42;77300.38;;;-145.10;100.00
56334;BME280;42240;53.626;55.886;2022-10-16T02:34:20;77302.34;;;-145.10;100.00
56334;BME280;42240;53.626;55.886;2022-10-16T02:35:56;77306.28;;;-145.10;100.00
56334;BME280;42240;53.626;55.886;2022-10-16T02:37:30;77351.78;;;-145.10;100.00
56334;BME280;42240;53.626;55.886;2022-10-16T02:39:05;77302.34;;;-145.10;100.00
56334;BME280;42240;53.626;55.886;2022-10-16T02:40:40;77316.19;;;-145.10;100.00
56334;BME280;42240;53.626;55.886;2022-10-16T02:42:17;77316.19;;;-145.10;100.00
56334;BME280;42240;53.626;55.886;2022-10-16T02:43:50;77308.28;;;-145.10;100.00
56334;BME280;42240;53.626;55.886;2022-10-16T02:45:24;77310.25;;;-145.10;100.00
56334;BME280;42240;53.626;55.886;2022-10-16T02:46:58;77306.28;;;-145.10;100.00
56334;BME280;42240;53.626;55.886;2022-10-16T02:48:31;77312.22;;;-145.10;100.00
56334;BME280;42240;53.626;55.886;2022-10-16T02:50:06;77324.09;;;-145.10;100.00
56334;BME280;42240;53.626;55.886;2022-10-16T02:51:39;77314.22;;;-145.10;100.00
56334;BME280;42240;53.626;55.886;2022-10-16T02:53:13;77312.22;;;-145.10;100.00
56334;BME280;42240;53.626;55.886;2022-10-16T02:54:46;77316.19;;;-145.10;100.00
56334;BME280;42240;53.626;55.886;2022-10-16T02:56:20;77314.22;;;-145.10;100.00
56334;BME280;42240;53.626;55.886;2022-10-16T02:57:54;77316.19;;;-145.10;100.00
56334;BME280;42240;53.626;55.886;2022-10-16T02:59:27;77314.22;;;-145.10;100.00
56334;BME280;42240;53.626;55.886;2022-10-16T03:01:01;77324.09;;;-145.10;100.00
56334;BME280;42240;53.626;55.886;2022-10-16T03:02:35;77320.13;;;-145.10;100.00
56334;BME280;42240;53.626;55.886;2022-10-16T03:04:08;77320.13;;;-145.10;100.00
56334;BME280;42240;53.626;55.886;2022-10-16T03:05:43;77320.13;;;-145.10;100.00
56334;BME280;42240;53.626;55.886;2022-10-16T03:07:18;77316.19;;;-145.10;100.00
56334;BME280;42240;53.626;55.886;2022-10-16T03:08:52;77328.06;;;-145.10;100.00
56334;BME280;42240;53.626;55.886;2022-10-16T03:10:26;77320.13;;;-145.10;100.00
56334;BME280;42240;53.626;55.886;2022-10-16T03:12:00;77316.19;;;-145.10;100.00
56334;BME280;42240;53.626;55.886;2022-10-16T03:13:34;77320.13;;;-145.10;100.00
56334;BME280;42240;53.626;55.886;2022-10-16T03:15:08;77328.06;;;-145.10;100.00
56334;BME280;42240;53.626;55.886;2022-10-16T03:16:42;77337.94;;;-145.10;100.00
56334;BME280;42240;53.626;55.886;2022-10-16T03:18:15;77332.00;;;-145.10;100.00
56334;BME280;42240;53.626;55.886;2022-10-16T03:19:49;77339.91;;;-145.10;100.00
56334;BME280;42240;53.626;55.886;2022-10-16T03:21:22;77328.06;;;-145.10;100.00
56334;BME280;42240;53.626;55.886;2022-10-16T03:22:55;77332.00;;;-145.10;100.00
56334;BME280;42240;53.626;55.886;2022-10-16T03:24:29;77335.97;;;-145.10;100.00
56334;BME280;42240;53.626;55.886;2022-10-16T03:26:02;77339.91;;;-145.10;100.00
56334;BME280;42240;53.626;55.886;2022-10-16T03:27:36;77332.00;;;-145.10;100.00
56334;BME280;42240;53.626;55.886;2022-10-16T03:29:09;77339.91;;;-145.10;100.00
56334;BME280;42240;53.626;55.886;2022-10-16T03:30:43;77330.03;;;-145.10;100.00
56334;BME280;42240;53.626;55.886;2022-10-16T03:32:17;77335.97;;;-145.10;100.00
56334;BME280;42240;53.626;55.886;2022-10-16T03:33:51;77343.88;;;-145.10;100.00
56334;BME280;42240;53.626;55.886;2022-10-16T03:35:24;77347.81;;;-145.10;100.00
56334;BME280;42240;53.626;55.886;2022-10-16T03:36:58;77397.28;;;-145.10;100.00
56334;BME280;42240;53.626;55.886;2022-10-16T03:38:31;77343.88;;;-145.10;100.00
56334;BME280;42240;53.626;55.886;2022-10-16T03:40:05;77339.91;;;-145.10;100.00
56334;BME280;42240;53.626;55.886;2022-10-16T03:41:39;77345.84;;;-145.10;100.00
56334;BME280;42240;53.626;55.886;2022-10-16T03:43:12;77343.88;;;-145.10;100.00
56334;BME280;42240;53.626;55.886;2022-10-16T03:44:46;77347.81;;;-145.10;100.00
56334;BME280;42240;53.626;55.886;2022-10-16T03:46:20;77345.84;;;-145.10;100.00
56334;BME280;42240;53.626;55.886;2022-10-16T03:47:53;77395.28;;;-145.10;100.00
56334;BME280;42240;53.626;55.886;2022-10-16T03:49:26;77347.81;;;-145.10;100.00
56334;BME280;42240;53.626;55.886;2022-10-16T03:51:00;77343.88;;;-145.10;100.00
56334;BME280;42240;53.626;55.886;2022-10-16T03:52:34;77347.81;;;-145.10;100.00
56334;BME280;42240;53.626;55.886;2022-10-16T03:54:07;77349.81;;;-145.10;100.00
56334;BME280;42240;53.626;55.886;2022-10-16T03:55:43;77343.88;;;-145.10;100.00
56334;BME280;42240;53.626;55.886;2022-10-16T03:57:17;77347.81;;;-145.10;100.00
56334;BME280;42240;53.626;55.886;2022-10-16T03:58:50;77345.84;;;-145.10;100.00
56334;BME280;42240;53.626;55.886;2022-10-16T04:00:24;77345.84;;;-145.10;100.00
56334;BME280;42240;53.626;55.886;2022-10-16T04:01:57;77347.81;;;-145.10;100.00
56334;BME280;42240;53.626;55.886;2022-10-16T04:03:31;77353.75;;;-145.10;100.00
56334;BME280;42240;53.626;55.886;2022-10-16T04:05:05;77355.75;;;-145.10;100.00
56334;BME280;42240;53.626;55.886;2022-10-16T04:06:39;77357.72;;;-145.10;100.00
56334;BME280;42240;53.626;55.886;2022-10-16T04:08:12;77359.69;;;-145.10;100.00
56334;BME280;42240;53.626;55.886;2022-10-16T04:09:45;77353.75;;;-145.10;100.00
56334;BME280;42240;53.626;55.886;2022-10-16T04:11:19;77355.75;;;-145.10;100.00
56334;BME280;42240;53.626;55.886;2022-10-16T04:12:53;77351.78;;;-145.10;100.00
56334;BME280;42240;53.626;55.886;2022-10-16T04:14:29;77355.75;;;-145.10;100.00
56334;BME280;42240;53.626;55.886;2022-10-16T04:16:03;77359.69;;;-145.10;100.00
56334;BME280;42240;53.626;55.886;2022-10-16T04:17:37;77357.72;;;-145.10;100.00
56334;BME280;42240;53.626;55.886;2022-10-16T04:19:11;77355.75;;;-145.10;100.00
56334;BME280;42240;53.626;55.886;2022-10-16T04:20:48;77347.81;;;-145.10;100.00
56334;BME280;42240;53.626;55.886;2022-10-16T04:22:21;77351.78;;;-145.10;100.00
56334;BME280;42240;53.626;55.886;2022-10-16T04:23:55;77357.72;;;-145.10;100.00
56334;BME280;42240;53.626;55.886;2022-10-16T04:25:29;77353.75;;;-145.10;100.00
56334;BME280;42240;53.626;55.886;2022-10-16T04:27:03;77349.81;;;-145.10;100.00
56334;BME280;42240;53.626;55.886;2022-10-16T04:28:42;77343.88;;;-145.10;100.00
56334;BME280;42240;53.626;55.886;2022-10-16T04:30:17;77339.91;;;-145.10;100.00
56334;BME280;42240;53.626;55.886;2022-10-16T04:31:51;77345.84;;;-145.10;100.00
56334;BME280;42240;53.626;55.886;2022-10-16T04:33:25;77347.81;;;-145.10;100.00
56334;BME280;42240;53.626;55.886;2022-10-16T04:35:01;77351.78;;;-145.10;100.00
56334;BME280;42240;53.626;55.886;2022-10-16T04:36:38;77345.84;;;-145.10;100.00
56334;BME280;42240;53.626;55.886;2022-10-16T04:38:11;77347.81;;;-145.10;100.00
56334;BME280;42240;53.626;55.886;2022-10-16T04:39:45;77339.91;;;-145.10;100.00
56334;BME280;42240;53.626;55.886;2022-10-16T04:41:19;77345.84;;;-145.10;100.00
56334;BME280;42240;53.626;55.886;2022-10-16T04:42:59;77337.94;;;-145.10;100.00
56334;BME280;42240;53.626;55.886;2022-10-16T04:44:33;77371.56;;;-145.10;100.00
56334;BME280;42240;53.626;55.886;2022-10-16T04:46:07;77391.34;;;-145.10;100.00
56334;BME280;42240;53.626;55.886;2022-10-16T04:47:41;77337.94;;;-145.10;100.00
56334;BME280;42240;53.626;55.886;2022-10-16T04:49:14;77339.91;;;-145.10;100.00
56334;BME280;42240;53.626;55.886;2022-10-16T04:50:48;77349.81;;;-145.10;100.00
56334;BME280;42240;53.626;55.886;2022-10-16T04:52:27;77351.78;;;-145.10;100.00
56334;BME280;42240;53.626;55.886;2022-10-16T04:54:00;77351.78;;;-145.10;100.00
56334;BME280;42240;53.626;55.886;2022-10-16T04:55:34;77345.84;;;-145.10;100.00
56334;BME280;42240;53.626;55.886;2022-10-16T04:57:07;77351.78;;;-145.10;100.00
56334;BME280;42240;53.626;55.886;2022-10-16T04:58:40;77355.75;;;-145.10;100.00
56334;BME280;42240;53.626;55.886;2022-10-16T05:00:14;77343.88;;;-145.10;100.00
56334;BME280;42240;53.626;55.886;2022-10-16T05:01:47;77351.78;;;-145.10;100.00
56334;BME280;42240;53.626;55.886;2022-10-16T05:03:21;77343.88;;;-145.10;100.00
56334;BME280;42240;53.626;55.886;2022-10-16T05:04:55;77343.88;;;-145.10;100.00
56334;BME280;42240;53.626;55.886;2022-10-16T05:06:28;77387.38;;;-145.10;100.00
56334;BME280;42240;53.626;55.886;2022-10-16T05:08:02;77345.84;;;-145.10;100.00
56334;BME280;42240;53.626;55.886;2022-10-16T05:09:36;77337.94;;;-145.10;100.00
56334;BME280;42240;53.626;55.886;2022-10-16T05:11:10;77339.91;;;-145.10;100.00
56334;BME280;42240;53.626;55.886;2022-10-16T05:12:44;77341.91;;;-145.10;100.00
56334;BME280;42240;53.626;55.886;2022-10-16T05:14:17;77337.94;;;-145.10;100.00
56334;BME280;42240;53.626;55.886;2022-10-16T05:15:51;77339.91;;;-145.10;100.00
56334;BME280;42240;53.626;55.886;2022-10-16T05:17:25;77335.97;;;-145.10;100.00
56334;BME280;42240;53.626;55.886;2022-10-16T05:18:59;77326.06;;;-145.10;100.00
56334;BME280;42240;53.626;55.886;2022-10-16T05:20:53;77328.06;;;-145.10;100.00
56334;BME280;42240;53.626;55.886;2022-10-16T05:22:26;77345.84;;;-145.10;100.00
56334;BME280;42240;53.626;55.886;2022-10-16T05:24:00;77316.19;;;-145.10;100.00
56334;BME280;42240;53.626;55.886;2022-10-16T05:25:33;77320.13;;;-145.10;100.00
56334;BME280;42240;53.626;55.886;2022-10-16T05:27:07;77302.34;;;-145.10;100.00
56334;BME280;42240;53.626;55.886;2022-10-16T05:28:40;77294.44;;;-145.10;100.00
56334;BME280;42240;53.626;55.886;2022-10-16T05:30:13;77304.31;;;-145.10;100.00
56334;BME280;42240;53.626;55.886;2022-10-16T05:31:50;77351.78;;;-145.10;100.00
56334;BME280;42240;53.626;55.886;2022-10-16T05:33:25;77276.63;;;-145.10;100.00
56334;BME280;42240;53.626;55.886;2022-10-16T05:34:58;77268.72;;;-145.10;100.00
56334;BME280;42240;53.626;55.886;2022-10-16T05:36:33;77254.88;;;-145.10;100.00
56334;BME280;42240;53.626;55.886;2022-10-16T05:38:06;77252.91;;;-145.10;100.00
56334;BME280;42240;53.626;55.886;2022-10-16T05:39:39;77245.00;;;-145.10;100.00
56334;BME280;42240;53.626;55.886;2022-10-16T05:41:13;77237.06;;;-145.10;100.00
56334;BME280;42240;53.626;55.886;2022-10-16T05:42:46;77237.06;;;-145.10;100.00
56334;BME280;42240;53.626;55.886;2022-10-16T05:44:19;77239.06;;;-145.10;100.00
56334;BME280;42240;53.626;55.886;2022-10-16T05:46:19;77241.03;;;-145.10;100.00
56334;BME280;42240;53.626;55.886;2022-10-16T05:47:53;77241.03;;;-145.10;100.00
56334;BME280;42240;53.626;55.886;2022-10-16T05:49:27;77231.16;;;-145.10;100.00
56334;BME280;42240;53.626;55.886;2022-10-16T05:51:06;77225.22;;;-145.10;100.00
56334;BME280;42240;53.626;55.886;2022-10-16T05:52:40;77227.19;;;-145.10;100.00
56334;BME280;42240;53.626;55.886;2022-10-16T05:54:13;77221.25;;;-145.10;100.00
56334;BME280;42240;53.626;55.886;2022-10-16T05:55:51;77217.31;;;-145.10;100.00
56334;BME280;42240;53.626;55.886;2022-10-16T05:57:25;77223.22;;;-145.10;100.00
56334;BME280;42240;53.626;55.886;2022-10-16T05:58:59;77205.44;;;-145.10;100.00
56334;BME280;42240;53.626;55.886;2022-10-16T06:00:33;77211.38;;;-145.10;100.00
56334;BME280;42240;53.626;55.886;2022-10-16T06:02:12;77213.34;;;-145.10;100.00
56334;BME280;42240;53.626;55.886;2022-10-16T06:03:46;77221.25;;;-145.10;100.00
56334;BME280;42240;53.626;55.886;2022-10-16T06:05:19;77213.34;;;-145.10;100.00
56334;BME280;42240;53.626;55.886;2022-10-16T06:06:54;77217.31;;;-145.10;100.00
56334;BME280;42240;53.626;55.886;2022-10-16T06:08:27;77221.25;;;-145.10;100.00
56334;BME280;42240;53.626;55.886;2022-10-16T06:10:01;77217.31;;;-145.10;100.00
56334;BME280;42240;53.626;55.886;2022-10-16T06:11:36;77213.34;;;-145.10;100.00
56334;BME280;42240;53.626;55.886;2022-10-16T06:13:10;77203.47;;;-145.10;100.00
56334;BME280;42240;53.626;55.886;2022-10-16T06:14:44;77227.19;;;-145.10;100.00
56334;BME280;42240;53.626;55.886;2022-10-16T06:16:19;77229.16;;;-145.10;100.00
56334;BME280;42240;53.626;55.886;2022-10-16T06:17:53;77219.28;;;-145.10;100.00
56334;BME280;42240;53.626;55.886;2022-10-16T06:19:26;77231.16;;;-145.10;100.00
56334;BME280;42240;53.626;55.886;2022-10-16T06:21:00;77219.28;;;-145.10;100.00
56334;BME280;42240;53.626;55.886;2022-10-16T06:22:40;77229.16;;;-145.10;100.00
56334;BME280;42240;53.626;55.886;2022-10-16T06:24:14;77225.22;;;-145.10;100.00
56334;BME280;42240;53.626;55.886;2022-10-16T06:25:47;77209.38;;;-145.10;100.00
56334;BME280;42240;53.626;55.886;2022-10-16T06:27:20;77225.22;;;-145.10;100.00
56334;BME280;42240;53.626;55.886;2022-10-16T06:28:54;77229.16;;;-145.10;100.00
56334;BME280;42240;53.626;55.886;2022-10-16T06:30:28;77221.25;;;-145.10;100.00
56334;BME280;42240;53.626;55.886;2022-10-16T06:32:02;77215.31;;;-145.10;100.00
56334;BME280;42240;53.626;55.886;2022-10-16T06:33:36;77211.38;;;-145.10;100.00
56334;BME280;42240;53.626;55.886;2022-10-16T06:35:10;77213.34;;;-145.10;100.00
56334;BME280;42240;53.626;55.886;2022-10-16T06:36:44;77221.25;;;-145.10;100.00
56334;BME280;42240;53.626;55.886;2022-10-16T06:38:20;77223.22;;;-145.10;100.00
56334;BME280;42240;53.626;55.886;2022-10-16T06:39:54;77245.00;;;-145.10;100.00
56334;BME280;42240;53.626;55.886;2022-10-16T06:41:27;77248.94;;;-145.10;100.00
56334;BME280;42240;53.626;55.886;2022-10-16T06:43:02;77252.91;;;-145.10;100.00
56334;BME280;42240;53.626;55.886;2022-10-16T06:44:36;77252.91;;;-145.10;100.00
56334;BME280;42240;53.626;55.886;2022-10-16T06:46:10;77272.69;;;-145.10;100.00
56334;BME280;42240;53.626;55.886;2022-10-16T06:47:45;77245.00;;;-145.10;100.00
56334;BME280;42240;53.626;55.886;2022-10-16T06:49:18;77241.03;;;-145.10;100.00
56334;BME280;42240;53.626;55.886;2022-10-16T06:51:15;77245.00;;;-145.10;100.00
56334;BME280;42240;53.626;55.886;2022-10-16T06:52:49;77245.00;;;-145.10;100.00
56334;BME280;42240;53.626;55.886;2022-10-16T06:54:24;77245.00;;;-145.10;100.00
56334;BME280;42240;53.626;55.886;2022-10-16T06:56:08;77252.91;;;-145.10;100.00
56334;BME280;42240;53.626;55.886;2022-10-16T06:57:43;77248.94;;;-145.10;100.00
56334;BME280;42240;53.626;55.886;2022-10-16T06:59:17;77245.00;;;-145.10;100.00
56334;BME280;42240;53.626;55.886;2022-10-16T07:00:55;77248.94;;;-145.10;100.00
56334;BME280;42240;53.626;55.886;2022-10-16T07:02:29;77245.00;;;-145.10;100.00
56334;BME280;42240;53.626;55.886;2022-10-16T07:04:03;77245.00;;;-145.10;100.00
56334;BME280;42240;53.626;55.886;2022-10-16T07:05:41;77233.13;;;-145.10;100.00
56334;BME280;42240;53.626;55.886;2022-10-16T07:07:15;77235.09;;;-145.10;100.00
56334;BME280;42240;53.626;55.886;2022-10-16T07:08:50;77237.06;;;-145.10;100.00
56334;BME280;42240;53.626;55.886;2022-10-16T07:10:23;77235.09;;;-145.10;100.00
56334;BME280;42240;53.626;55.886;2022-10-16T07:11:57;77233.13;;;-145.10;100.00
56334;BME280;42240;53.626;55.886;2022-10-16T07:13:37;77229.16;;;-145.10;100.00
56334;BME280;42240;53.626;55.886;2022-10-16T07:15:11;77233.13;;;-145.10;100.00
56334;BME280;42240;53.626;55.886;2022-10-16T07:16:45;77225.22;;;-145.10;100.00
56334;BME280;42240;53.626;55.886;2022-10-16T07:18:19;77225.22;;;-145.10;100.00
56334;BME280;42240;53.626;55.886;2022-10-16T07:19:53;77215.31;;;-145.10;100.00
56334;BME280;42240;53.626;55.886;2022-10-16T07:21:33;77193.56;;;-145.10;100.00
56334;BME280;42240;53.626;55.886;2022-10-16T07:23:10;77201.47;;;-145.10;100.00
56334;BME280;42240;53.626;55.886;2022-10-16T07:24:44;77213.34;;;-145.10;100.00
56334;BME280;42240;53.626;55.886;2022-10-16T07:26:25;77239.06;;;-145.10;100.00
56334;BME280;42240;53.626;55.886;2022-10-16T07:27:59;77209.38;;;-145.10;100.00
56334;BME280;42240;53.626;55.886;2022-10-16T07:29:32;77201.47;;;-145.10;100.00
56334;BME280;42240;53.626;55.886;2022-10-16T07:31:11;77193.56;;;-145.10;100.00
56334;BME280;42240;53.626;55.886;2022-10-16T07:32:48;77191.59;;;-145.10;100.00
56334;BME280;42240;53.626;55.886;2022-10-16T07:34:22;77183.69;;;-145.10;100.00
56334;BME280;42240;53.626;55.886;2022-10-16T07:35:56;77181.69;;;-145.10;100.00
56334;BME280;42240;53.626;55.886;2022-10-16T07:37:29;77187.63;;;-145.10;100.00
56334;BME280;42240;53.626;55.886;2022-10-16T07:39:06;77175.78;;;-145.10;100.00
56334;BME280;42240;53.626;55.886;2022-10-16T07:40:39;77177.75;;;-145.10;100.00
56334;BME280;42240;53.626;55.886;2022-10-16T07:42:14;77177.75;;;-145.10;100.00
56334;BME280;42240;53.626;55.886;2022-10-16T07:43:48;77173.78;;;-145.10;100.00
56334;BME280;42240;53.626;55.886;2022-10-16T07:45:22;77177.75;;;-145.10;99.91
56334;BME280;42240;53.626;55.886;2022-10-16T07:46:55;77183.69;;;-145.10;100.00
56334;BME280;42240;53.626;55.886;2022-10-16T07:48:31;77225.22;;;-145.10;100.00
56334;BME280;42240;53.626;55.886;2022-10-16T07:50:05;77185.66;;;-145.10;99.88
56334;BME280;42240;53.626;55.886;2022-10-16T07:51:39;77187.63;;;-145.10;100.00
56334;BME280;42240;53.626;55.886;2022-10-16T07:53:13;77187.63;;;-145.10;100.00
56334;BME280;42240;53.626;55.886;2022-10-16T07:54:47;77187.63;;;-145.10;100.00
56334;BME280;42240;53.626;55.886;2022-10-16T07:56:21;77181.69;;;-145.10;100.00
56334;BME280;42240;53.626;55.886;2022-10-16T07:57:54;77191.59;;;-145.10;100.00
56334;BME280;42240;53.626;55.886;2022-10-16T07:59:28;77175.78;;;-145.10;99.68
56334;BME280;42240;53.626;55.886;2022-10-16T08:01:05;77225.22;;;-145.10;99.51
56334;BME280;42240;53.626;55.886;2022-10-16T08:02:40;77189.59;;;-145.10;99.16
56334;BME280;42240;53.626;55.886;2022-10-16T08:04:16;77175.78;;;-145.10;99.16
56334;BME280;42240;53.626;55.886;2022-10-16T08:05:50;77181.69;;;-145.10;98.80
56334;BME280;42240;53.626;55.886;2022-10-16T08:07:27;77177.75;;;-145.10;98.50
56334;BME280;42240;53.626;55.886;2022-10-16T08:09:00;77175.78;;;-145.10;98.31
56334;BME280;42240;53.626;55.886;2022-10-16T08:10:34;77173.78;;;-145.10;98.06
56334;BME280;42240;53.626;55.886;2022-10-16T08:12:07;77181.69;;;-145.10;97.88
56334;BME280;42240;53.626;55.886;2022-10-16T08:13:42;77189.59;;;-145.10;98.44
56334;BME280;42240;53.626;55.886;2022-10-16T08:15:17;77177.75;;;-145.10;98.69
56334;BME280;42240;53.626;55.886;2022-10-16T08:16:50;77191.59;;;-145.10;98.60
56334;BME280;42240;53.626;55.886;2022-10-16T08:18:24;77201.47;;;-145.10;99.00
56334;BME280;42240;53.626;55.886;2022-10-16T08:19:58;77197.53;;;-145.10;98.83